Time,TemperatureF,DewpointF,PressureIn,WindDirection,WindDirectionDegrees,WindSpeedMPH,WindSpeedGustMPH,Humidity,HourlyPrecipIn,Conditions,Clouds,dailyrainin,SoftwareType,DateUTC
2013-02-11 00:00:00,31.5,24.8,30.13,West,265,1.0,1.0,76,0.00,,,0.00,Wunderground v.1.15,2013-02-11 08:00:00,
2013-02-11 00:10:00,31.3,24.9,30.13,West,265,0.0,0.0,77,0.00,,,0.00,Wunderground v.1.15,2013-02-11 08:10:00,
2013-02-11 00:20:00,31.3,24.9,30.13,West,265,0.0,1.0,77,0.00,,,0.00,Wunderground v.1.15,2013-02-11 08:20:00,
2013-02-11 00:25:00,31.2,24.8,30.13,West,265,1.0,2.0,77,0.00,,,0.00,Wunderground v.1.15,2013-02-11 08:25:00,
2013-02-11 00:30:00,30.9,24.5,30.14,West,265,1.0,1.0,77,0.00,,,0.00,Wunderground v.1.15,2013-02-11 08:30:00,
2013-02-11 00:35:00,30.7,24.7,30.14,West,265,1.0,1.0,78,0.00,,,0.00,Wunderground v.1.15,2013-02-11 08:35:00,
2013-02-11 00:40:00,30.7,24.7,30.14,West,265,0.0,1.0,78,0.00,,,0.00,Wunderground v.1.15,2013-02-11 08:40:00,
2013-02-11 00:50:00,30.9,24.8,30.14,West,265,1.0,1.0,78,0.00,,,0.00,Wunderground v.1.15,2013-02-11 08:50:00,
2013-02-11 00:55:00,30.9,24.8,30.14,West,265,0.0,1.0,78,0.00,,,0.00,Wunderground v.1.15,2013-02-11 08:55:00,
2013-02-11 01:00:00,30.7,24.7,30.14,West,265,0.0,0.0,78,0.00,,,0.00,Wunderground v.1.15,2013-02-11 09:00:00,
2013-02-11 01:05:00,30.7,24.7,30.14,West,265,0.0,1.0,78,0.00,,,0.00,Wunderground v.1.15,2013-02-11 09:05:00,
2013-02-11 01:10:00,30.6,24.6,30.14,West,265,0.0,0.0,78,0.00,,,0.00,Wunderground v.1.15,2013-02-11 09:10:00,
2013-02-11 01:20:00,30.6,24.9,30.14,West,265,0.0,3.0,79,0.00,,,0.00,Wunderground v.1.15,2013-02-11 09:20:00,
2013-02-11 01:25:00,30.6,24.9,30.14,West,265,1.0,3.0,79,0.00,,,0.00,Wunderground v.1.15,2013-02-11 09:25:00,
2013-02-11 01:30:00,30.4,24.7,30.14,West,265,0.0,0.0,79,0.00,,,0.00,Wunderground v.1.15,2013-02-11 09:30:00,
2013-02-11 01:35:00,30.3,24.6,30.14,West,265,0.0,0.0,79,0.00,,,0.00,Wunderground v.1.15,2013-02-11 09:35:00,
2013-02-11 01:40:00,30.3,24.6,30.14,West,265,0.0,0.0,79,0.00,,,0.00,Wunderground v.1.15,2013-02-11 09:40:00,
2013-02-11 01:50:00,29.8,24.4,30.14,West,265,1.0,1.0,80,0.00,,,0.00,Wunderground v.1.15,2013-02-11 09:50:00,
2013-02-11 01:55:00,29.8,24.4,30.14,West,265,1.0,1.0,80,0.00,,,0.00,Wunderground v.1.15,2013-02-11 09:55:00,
2013-02-11 02:00:00,29.8,24.4,30.14,West,265,0.0,0.0,80,0.00,,,0.00,Wunderground v.1.15,2013-02-11 10:00:00,
2013-02-11 02:05:00,29.8,24.4,30.14,West,265,0.0,0.0,80,0.00,,,0.00,Wunderground v.1.15,2013-02-11 10:05:00,
2013-02-11 02:15:00,30.0,24.3,30.15,West,265,0.0,2.0,79,0.00,,,0.00,Wunderground v.1.15,2013-02-11 10:15:00,
2013-02-11 02:20:00,30.0,24.3,30.15,West,265,0.0,0.0,79,0.00,,,0.00,Wunderground v.1.15,2013-02-11 10:20:00,
2013-02-11 02:25:00,29.8,24.1,30.15,West,265,0.0,0.0,79,0.00,,,0.00,Wunderground v.1.15,2013-02-11 10:25:00,
2013-02-11 02:30:00,29.7,24.3,30.15,West,265,0.0,0.0,80,0.00,,,0.00,Wunderground v.1.15,2013-02-11 10:30:00,
2013-02-11 02:40:00,29.5,24.1,30.15,West,265,0.0,0.0,80,0.00,,,0.00,Wunderground v.1.15,2013-02-11 10:40:00,
2013-02-11 02:45:00,29.4,24.0,30.15,West,265,0.0,0.0,80,0.00,,,0.00,Wunderground v.1.15,2013-02-11 10:45:00,
2013-02-11 02:50:00,29.3,23.9,30.15,West,265,0.0,0.0,80,0.00,,,0.00,Wunderground v.1.15,2013-02-11 10:50:00,
2013-02-11 02:55:00,29.3,23.9,30.15,West,265,0.0,0.0,80,0.00,,,0.00,Wunderground v.1.15,2013-02-11 10:55:00,
2013-02-11 03:00:00,29.3,24.2,30.15,West,265,0.0,0.0,81,0.00,,,0.00,Wunderground v.1.15,2013-02-11 11:00:00,
2013-02-11 03:10:00,29.3,24.2,30.15,West,265,0.0,0.0,81,0.00,,,0.00,Wunderground v.1.15,2013-02-11 11:10:00,
2013-02-11 03:15:00,29.3,23.9,30.15,West,265,1.0,1.0,80,0.00,,,0.00,Wunderground v.1.15,2013-02-11 11:15:00,
2013-02-11 03:20:00,29.3,23.9,30.15,West,265,1.0,1.0,80,0.00,,,0.00,Wunderground v.1.15,2013-02-11 11:20:00,
2013-02-11 03:25:00,29.0,23.6,30.15,West,265,1.0,1.0,80,0.00,,,0.00,Wunderground v.1.15,2013-02-11 11:25:00,
2013-02-11 03:30:00,28.8,23.7,30.15,West,265,0.0,0.0,81,0.00,,,0.00,Wunderground v.1.15,2013-02-11 11:30:00,
2013-02-11 03:40:00,28.5,23.4,30.15,West,265,0.0,0.0,81,0.00,,,0.00,Wunderground v.1.15,2013-02-11 11:40:00,
2013-02-11 03:50:00,28.2,23.4,30.14,West,265,0.0,0.0,82,0.00,,,0.00,Wunderground v.1.15,2013-02-11 11:50:00,
2013-02-11 03:55:00,28.2,23.4,30.14,West,265,1.0,1.0,82,0.00,,,0.00,Wunderground v.1.15,2013-02-11 11:55:00,
2013-02-11 04:00:00,28.2,23.4,30.15,West,265,1.0,2.0,82,0.00,,,0.00,Wunderground v.1.15,2013-02-11 12:00:00,
2013-02-11 04:10:00,28.2,23.4,30.15,West,265,0.0,0.0,82,0.00,,,0.00,Wunderground v.1.15,2013-02-11 12:10:00,
2013-02-11 04:15:00,28.1,23.3,30.15,West,265,0.0,0.0,82,0.00,,,0.00,Wunderground v.1.15,2013-02-11 12:15:00,
2013-02-11 04:20:00,28.1,23.3,30.15,West,265,0.0,0.0,82,0.00,,,0.00,Wunderground v.1.15,2013-02-11 12:20:00,
2013-02-11 04:25:00,28.1,23.3,30.15,West,265,0.0,0.0,82,0.00,,,0.00,Wunderground v.1.15,2013-02-11 12:25:00,
2013-02-11 04:30:00,28.1,23.3,30.16,West,265,1.0,2.0,82,0.00,,,0.00,Wunderground v.1.15,2013-02-11 12:30:00,
2013-02-11 04:35:00,27.9,23.1,30.16,West,265,1.0,2.0,82,0.00,,,0.00,Wunderground v.1.15,2013-02-11 12:35:00,
2013-02-11 04:45:00,28.1,23.6,30.16,West,265,1.0,1.0,83,0.00,,,0.00,Wunderground v.1.15,2013-02-11 12:45:00,
2013-02-11 04:50:00,28.1,23.3,30.16,West,265,1.0,1.0,82,0.00,,,0.00,Wunderground v.1.15,2013-02-11 12:50:00,
2013-02-11 04:55:00,27.9,23.4,30.16,West,265,1.0,1.0,83,0.00,,,0.00,Wunderground v.1.15,2013-02-11 12:55:00,
2013-02-11 05:00:00,28.1,23.6,30.16,West,265,0.0,2.0,83,0.00,,,0.00,Wunderground v.1.15,2013-02-11 13:00:00,
2013-02-11 05:05:00,28.1,23.6,30.16,West,265,1.0,2.0,83,0.00,,,0.00,Wunderground v.1.15,2013-02-11 13:05:00,
2013-02-11 05:10:00,28.1,23.6,30.16,West,265,2.0,2.0,83,0.00,,,0.00,Wunderground v.1.15,2013-02-11 13:10:00,
2013-02-11 05:20:00,28.1,23.6,30.16,West,265,1.0,1.0,83,0.00,,,0.00,Wunderground v.1.15,2013-02-11 13:20:00,
2013-02-11 05:25:00,28.2,23.7,30.16,West,265,1.0,1.0,83,0.00,,,0.00,Wunderground v.1.15,2013-02-11 13:25:00,
2013-02-11 05:35:00,28.2,23.4,30.17,West,265,1.0,2.0,82,0.00,,,0.00,Wunderground v.1.15,2013-02-11 13:35:00,
2013-02-11 05:45:00,27.9,23.4,30.17,West,265,1.0,1.0,83,0.00,,,0.00,Wunderground v.1.15,2013-02-11 13:45:00,
2013-02-11 05:50:00,27.9,23.4,30.17,West,265,1.0,1.0,83,0.00,,,0.00,Wunderground v.1.15,2013-02-11 13:50:00,
2013-02-11 05:55:00,27.9,23.4,30.17,West,265,1.0,2.0,83,0.00,,,0.00,Wunderground v.1.15,2013-02-11 13:55:00,
2013-02-11 06:00:00,28.1,23.6,30.18,West,265,1.0,1.0,83,0.00,,,0.00,Wunderground v.1.15,2013-02-11 14:00:00,
2013-02-11 06:10:00,28.2,23.4,30.18,West,265,1.0,1.0,82,0.00,,,0.00,Wunderground v.1.15,2013-02-11 14:10:00,
2013-02-11 06:15:00,28.1,23.6,30.18,West,265,0.0,1.0,83,0.00,,,0.00,Wunderground v.1.15,2013-02-11 14:15:00,
2013-02-11 06:25:00,27.8,23.3,30.18,West,265,0.0,0.0,83,0.00,,,0.00,Wunderground v.1.15,2013-02-11 14:25:00,
2013-02-11 06:30:00,27.5,23.3,30.19,West,265,0.0,1.0,84,0.00,,,0.00,Wunderground v.1.15,2013-02-11 14:30:00,
2013-02-11 06:40:00,27.3,23.1,30.19,West,265,0.0,0.0,84,0.00,,,0.00,Wunderground v.1.15,2013-02-11 14:40:00,
2013-02-11 06:45:00,27.5,23.3,30.19,West,265,0.0,0.0,84,0.00,,,0.00,Wunderground v.1.15,2013-02-11 14:45:00,
2013-02-11 06:50:00,27.5,23.3,30.19,West,265,0.0,0.0,84,0.00,,,0.00,Wunderground v.1.15,2013-02-11 14:50:00,
2013-02-11 06:55:00,27.5,23.3,30.19,West,265,0.0,1.0,84,0.00,,,0.00,Wunderground v.1.15,2013-02-11 14:55:00,
2013-02-11 07:05:00,27.2,23.0,30.19,West,265,1.0,2.0,84,0.00,,,0.00,Wunderground v.1.15,2013-02-11 15:05:00,
2013-02-11 07:15:00,27.2,23.0,30.20,West,265,0.0,0.0,84,0.00,,,0.00,Wunderground v.1.15,2013-02-11 15:15:00,
2013-02-11 07:20:00,27.3,23.1,30.20,West,265,1.0,1.0,84,0.00,,,0.00,Wunderground v.1.15,2013-02-11 15:20:00,
2013-02-11 07:30:00,27.5,23.3,30.20,West,265,1.0,1.0,84,0.00,,,0.00,Wunderground v.1.15,2013-02-11 15:30:00,
2013-02-11 07:35:00,27.6,23.4,30.20,West,265,0.0,1.0,84,0.00,,,0.00,Wunderground v.1.15,2013-02-11 15:35:00,
2013-02-11 07:45:00,28.8,24.6,30.20,West,265,0.0,1.0,84,0.00,,,0.00,Wunderground v.1.15,2013-02-11 15:45:00,
2013-02-11 07:50:00,29.5,24.7,30.20,West,265,0.0,0.0,82,0.00,,,0.00,Wunderground v.1.15,2013-02-11 15:50:00,
2013-02-11 07:55:00,29.8,24.7,30.20,West,265,0.0,2.0,81,0.00,,,0.00,Wunderground v.1.15,2013-02-11 15:55:00,
2013-02-11 08:00:00,30.1,24.7,30.21,West,265,1.0,1.0,80,0.00,,,0.00,Wunderground v.1.15,2013-02-11 16:00:00,
2013-02-11 08:10:00,31.6,25.8,30.21,NE,40,2.0,2.0,79,0.00,,,0.00,Wunderground v.1.15,2013-02-11 16:10:00,
2013-02-11 08:15:00,32.4,26.0,30.22,East,87,1.0,2.0,77,0.00,,,0.00,Wunderground v.1.15,2013-02-11 16:15:00,
2013-02-11 08:20:00,32.9,25.5,30.22,East,87,1.0,2.0,74,0.00,,,0.00,Wunderground v.1.15,2013-02-11 16:20:00,
2013-02-11 08:30:00,34.9,26.1,30.22,SW,235,1.0,1.0,70,0.00,,,0.00,Wunderground v.1.15,2013-02-11 16:30:00,
2013-02-11 08:35:00,35.9,26.7,30.22,SW,235,1.0,2.0,69,0.00,,,0.00,Wunderground v.1.15,2013-02-11 16:35:00,
2013-02-11 08:40:00,36.3,27.1,30.22,SW,235,1.0,1.0,69,0.00,,,0.00,Wunderground v.1.15,2013-02-11 16:40:00,
2013-02-11 08:50:00,39.5,27.9,30.22,SW,235,0.0,0.0,63,0.00,,,0.00,Wunderground v.1.15,2013-02-11 16:50:00,
2013-02-11 08:55:00,41.1,28.7,30.22,SW,235,0.0,0.0,61,0.00,,,0.00,Wunderground v.1.15,2013-02-11 16:55:00,
2013-02-11 09:00:00,42.5,28.3,30.22,SW,235,0.0,0.0,57,0.00,,,0.00,Wunderground v.1.15,2013-02-11 17:00:00,
2013-02-11 09:05:00,43.5,28.4,30.22,SW,235,0.0,0.0,55,0.00,,,0.00,Wunderground v.1.15,2013-02-11 17:05:00,
2013-02-11 09:10:00,43.6,28.5,30.22,SW,235,0.0,0.0,55,0.00,,,0.00,Wunderground v.1.15,2013-02-11 17:10:00,
2013-02-11 09:20:00,46.0,30.3,30.22,SSE,167,0.0,0.0,54,0.00,,,0.00,Wunderground v.1.15,2013-02-11 17:20:00,
2013-02-11 09:25:00,47.4,30.2,30.22,SSE,167,0.0,0.0,51,0.00,,,0.00,Wunderground v.1.15,2013-02-11 17:25:00,
2013-02-11 09:35:00,50.8,31.8,30.22,West,271,0.0,2.0,48,0.00,,,0.00,Wunderground v.1.15,2013-02-11 17:35:00,
2013-02-11 09:40:00,53.9,25.4,30.22,NW,304,1.0,1.0,33,0.00,,,0.00,Wunderground v.1.15,2013-02-11 17:40:00,
2013-02-11 09:50:00,56.0,23.3,30.23,NW,308,3.0,4.0,28,0.00,,,0.00,Wunderground v.1.15,2013-02-11 17:50:00,
2013-02-11 09:55:00,56.3,22.7,30.23,West,261,4.0,8.0,27,0.00,,,0.00,Wunderground v.1.15,2013-02-11 17:55:00,
2013-02-11 10:00:00,56.0,22.4,30.23,WNW,303,6.0,6.0,27,0.00,,,0.00,Wunderground v.1.15,2013-02-11 18:00:00,
2013-02-11 10:10:00,56.6,23.8,30.23,West,266,6.0,12.0,28,0.00,,,0.00,Wunderground v.1.15,2013-02-11 18:10:00,
2013-02-11 10:15:00,57.0,24.2,30.23,NW,319,6.0,12.0,28,0.00,,,0.00,Wunderground v.1.15,2013-02-11 18:15:00,
2013-02-11 10:25:00,57.5,23.7,30.23,West,265,7.0,13.0,27,0.00,,,0.00,Wunderground v.1.15,2013-02-11 18:25:00,
2013-02-11 10:30:00,57.5,23.7,30.23,West,273,8.0,13.0,27,0.00,,,0.00,Wunderground v.1.15,2013-02-11 18:30:00,
2013-02-11 10:40:00,58.1,23.3,30.23,SSW,205,11.0,11.0,26,0.00,,,0.00,Wunderground v.1.15,2013-02-11 18:40:00,
2013-02-11 10:45:00,58.6,23.8,30.22,WSW,250,9.0,11.0,26,0.00,,,0.00,Wunderground v.1.15,2013-02-11 18:45:00,
2013-02-11 10:55:00,58.6,23.8,30.22,West,273,7.0,8.0,26,0.00,,,0.00,Wunderground v.1.15,2013-02-11 18:55:00,
2013-02-11 11:00:00,58.7,23.9,30.22,WSW,257,8.0,8.0,26,0.00,,,0.00,Wunderground v.1.15,2013-02-11 19:00:00,
2013-02-11 11:10:00,60.1,25.1,30.22,East,98,5.0,5.0,26,0.00,,,0.00,Wunderground v.1.15,2013-02-11 19:10:00,
2013-02-11 11:15:00,60.9,23.8,30.21,West,271,3.0,6.0,24,0.00,,,0.00,Wunderground v.1.15,2013-02-11 19:15:00,
2013-02-11 11:20:00,60.1,24.1,30.21,West,271,4.0,4.0,25,0.00,,,0.00,Wunderground v.1.15,2013-02-11 19:20:00,
2013-02-11 11:30:00,60.4,24.4,30.21,SW,229,5.0,5.0,25,0.00,,,0.00,Wunderground v.1.15,2013-02-11 19:30:00,
2013-02-11 11:35:00,60.4,22.4,30.21,SE,129,6.0,7.0,23,0.00,,,0.00,Wunderground v.1.15,2013-02-11 19:35:00,
2013-02-11 11:45:00,61.2,23.1,30.20,East,92,8.0,14.0,23,0.00,,,0.00,Wunderground v.1.15,2013-02-11 19:45:00,
2013-02-11 11:50:00,61.2,23.1,30.20,ESE,107,8.0,9.0,23,0.00,,,0.00,Wunderground v.1.15,2013-02-11 19:50:00,
2013-02-11 12:00:00,61.2,23.1,30.20,ENE,66,7.0,7.0,23,0.00,,,0.00,Wunderground v.1.15,2013-02-11 20:00:00,
2013-02-11 12:05:00,61.2,23.1,30.20,SSW,211,8.0,8.0,23,0.00,,,0.00,Wunderground v.1.15,2013-02-11 20:05:00,
2013-02-11 12:10:00,61.5,23.3,30.20,SSW,208,7.0,7.0,23,0.00,,,0.00,Wunderground v.1.15,2013-02-11 20:10:00,
2013-02-11 12:20:00,61.8,22.5,30.19,ESE,106,7.0,9.0,22,0.00,,,0.00,Wunderground v.1.15,2013-02-11 20:20:00,
2013-02-11 12:25:00,61.6,23.4,30.19,SSW,210,7.0,9.0,23,0.00,,,0.00,Wunderground v.1.15,2013-02-11 20:25:00,
2013-02-11 12:35:00,62.1,23.8,30.18,West,269,6.0,8.0,23,0.00,,,0.00,Wunderground v.1.15,2013-02-11 20:35:00,
2013-02-11 12:40:00,61.8,23.6,30.18,West,275,8.0,9.0,23,0.00,,,0.00,Wunderground v.1.15,2013-02-11 20:40:00,
2013-02-11 12:50:00,62.0,22.7,30.18,WNW,284,10.0,10.0,22,0.00,,,0.00,Wunderground v.1.15,2013-02-11 20:50:00,
2013-02-11 12:55:00,62.0,21.6,30.18,West,274,11.0,11.0,21,0.00,,,0.00,Wunderground v.1.15,2013-02-11 20:55:00,
2013-02-11 13:00:00,62.4,21.9,30.17,West,260,11.0,11.0,21,0.00,,,0.00,Wunderground v.1.15,2013-02-11 21:00:00,
2013-02-11 13:10:00,63.2,22.6,30.17,SW,231,5.0,5.0,21,0.00,,,0.00,Wunderground v.1.15,2013-02-11 21:10:00,
2013-02-11 13:15:00,63.2,21.4,30.17,West,263,7.0,9.0,20,0.00,,,0.00,Wunderground v.1.15,2013-02-11 21:15:00,
2013-02-11 13:25:00,63.7,21.8,30.17,South,172,8.0,8.0,20,0.00,,,0.00,Wunderground v.1.15,2013-02-11 21:25:00,
2013-02-11 13:35:00,63.5,20.5,30.16,WSW,256,9.0,11.0,19,0.00,,,0.00,Wunderground v.1.15,2013-02-11 21:35:00,
2013-02-11 13:40:00,63.7,20.6,30.16,SW,215,12.0,12.0,19,0.00,,,0.00,Wunderground v.1.15,2013-02-11 21:40:00,
2013-02-11 13:45:00,63.9,20.8,30.16,West,269,11.0,13.0,19,0.00,,,0.00,Wunderground v.1.15,2013-02-11 21:45:00,
2013-02-11 13:50:00,64.0,20.9,30.16,West,273,11.0,16.0,19,0.00,,,0.00,Wunderground v.1.15,2013-02-11 21:50:00,
2013-02-11 14:00:00,64.5,21.3,30.15,SW,228,10.0,10.0,19,0.00,,,0.00,Wunderground v.1.15,2013-02-11 22:00:00,
2013-02-11 14:05:00,64.7,20.2,30.15,WNW,287,9.0,10.0,18,0.00,,,0.00,Wunderground v.1.15,2013-02-11 22:05:00,
2013-02-11 14:15:00,65.0,21.7,30.15,West,269,6.0,11.0,19,0.00,,,0.00,Wunderground v.1.15,2013-02-11 22:15:00,
2013-02-11 14:20:00,65.0,19.1,30.15,SE,130,7.0,7.0,17,0.00,,,0.00,Wunderground v.1.15,2013-02-11 22:20:00,
2013-02-11 14:25:00,65.2,21.9,30.15,WSW,249,6.0,7.0,19,0.00,,,0.00,Wunderground v.1.15,2013-02-11 22:25:00,
2013-02-11 14:30:00,65.6,20.9,30.15,SW,227,4.0,4.0,18,0.00,,,0.00,Wunderground v.1.15,2013-02-11 22:30:00,
2013-02-11 14:40:00,65.6,19.6,30.15,South,190,4.0,7.0,17,0.00,,,0.00,Wunderground v.1.15,2013-02-11 22:40:00,
2013-02-11 14:45:00,65.6,19.6,30.15,SSE,148,4.0,7.0,17,0.00,,,0.00,Wunderground v.1.15,2013-02-11 22:45:00,
2013-02-11 14:50:00,65.6,19.6,30.15,ENE,78,4.0,8.0,17,0.00,,,0.00,Wunderground v.1.15,2013-02-11 22:50:00,
2013-02-11 15:00:00,65.6,18.1,30.14,SSE,157,7.0,7.0,16,0.00,,,0.00,Wunderground v.1.15,2013-02-11 23:00:00,
2013-02-11 15:05:00,66.1,20.0,30.14,SSE,165,5.0,7.0,17,0.00,,,0.00,Wunderground v.1.15,2013-02-11 23:05:00,
2013-02-11 15:10:00,66.1,20.0,30.14,ESE,114,4.0,4.0,17,0.00,,,0.00,Wunderground v.1.15,2013-02-11 23:10:00,
2013-02-11 15:20:00,65.8,18.3,30.14,ESE,118,7.0,7.0,16,0.00,,,0.00,Wunderground v.1.15,2013-02-11 23:20:00,
2013-02-11 15:25:00,65.6,19.6,30.14,ESE,112,7.0,10.0,17,0.00,,,0.00,Wunderground v.1.15,2013-02-11 23:25:00,
2013-02-11 15:30:00,65.8,19.7,30.14,East,84,7.0,7.0,17,0.00,,,0.00,Wunderground v.1.15,2013-02-11 23:30:00,
2013-02-11 15:40:00,66.0,19.9,30.14,East,85,5.0,5.0,17,0.00,,,0.00,Wunderground v.1.15,2013-02-11 23:40:00,
2013-02-11 15:45:00,66.1,18.5,30.14,East,94,5.0,6.0,16,0.00,,,0.00,Wunderground v.1.15,2013-02-11 23:45:00,
2013-02-11 15:50:00,65.8,18.3,30.14,ESE,117,7.0,8.0,16,0.00,,,0.00,Wunderground v.1.15,2013-02-11 23:50:00,
2013-02-11 15:55:00,65.8,18.3,30.14,SW,232,8.0,8.0,16,0.00,,,0.00,Wunderground v.1.15,2013-02-11 23:55:00,
2013-02-11 16:05:00,66.3,20.1,30.14,SSE,165,3.0,7.0,17,0.00,,,0.00,Wunderground v.1.15,2013-02-12 00:05:00,
2013-02-11 16:10:00,66.1,20.0,30.14,West,269,2.0,3.0,17,0.00,,,0.00,Wunderground v.1.15,2013-02-12 00:10:00,
2013-02-11 16:15:00,66.3,20.1,30.14,ENE,63,3.0,4.0,17,0.00,,,0.00,Wunderground v.1.15,2013-02-12 00:15:00,
2013-02-11 16:20:00,66.0,21.2,30.14,East,89,2.0,5.0,18,0.00,,,0.00,Wunderground v.1.15,2013-02-12 00:20:00,
2013-02-11 16:30:00,64.7,21.4,30.14,SE,128,1.0,1.0,19,0.00,,,0.00,Wunderground v.1.15,2013-02-12 00:30:00,
2013-02-11 16:35:00,64.0,20.9,30.14,SE,128,0.0,1.0,19,0.00,,,0.00,Wunderground v.1.15,2013-02-12 00:35:00,
2013-02-11 16:40:00,63.4,21.6,30.14,SE,128,0.0,0.0,20,0.00,,,0.00,Wunderground v.1.15,2013-02-12 00:40:00,
2013-02-11 16:45:00,62.7,22.2,30.15,SE,128,0.0,0.0,21,0.00,,,0.00,Wunderground v.1.15,2013-02-12 00:45:00,
2013-02-11 16:55:00,62.1,24.8,30.15,SE,128,0.0,0.0,24,0.00,,,0.00,Wunderground v.1.15,2013-02-12 00:55:00,
2013-02-11 17:00:00,61.3,26.1,30.15,SE,128,0.0,0.0,26,0.00,,,0.00,Wunderground v.1.15,2013-02-12 01:00:00,
2013-02-11 17:05:00,60.4,27.1,30.15,SE,128,0.0,0.0,28,0.00,,,0.00,Wunderground v.1.15,2013-02-12 01:05:00,
2013-02-11 17:10:00,59.3,25.3,30.15,SE,128,0.0,0.0,27,0.00,,,0.00,Wunderground v.1.15,2013-02-12 01:10:00,
2013-02-11 17:20:00,57.8,26.5,30.15,SE,128,0.0,0.0,30,0.00,,,0.00,Wunderground v.1.15,2013-02-12 01:20:00,
2013-02-11 17:25:00,56.7,27.1,30.15,SE,128,0.0,0.0,32,0.00,,,0.00,Wunderground v.1.15,2013-02-12 01:25:00,
2013-02-11 17:30:00,55.9,28.6,30.15,SE,128,0.0,0.0,35,0.00,,,0.00,Wunderground v.1.15,2013-02-12 01:30:00,
2013-02-11 17:40:00,54.2,27.1,30.15,SE,128,0.0,0.0,35,0.00,,,0.00,Wunderground v.1.15,2013-02-12 01:40:00,
2013-02-11 17:45:00,53.5,28.5,30.16,SE,128,0.0,0.0,38,0.00,,,0.00,Wunderground v.1.15,2013-02-12 01:45:00,
2013-02-11 17:55:00,52.0,28.4,30.16,SE,128,0.0,0.0,40,0.00,,,0.00,Wunderground v.1.15,2013-02-12 01:55:00,
2013-02-11 18:00:00,50.8,28.5,30.17,SE,128,0.0,0.0,42,0.00,,,0.00,Wunderground v.1.15,2013-02-12 02:00:00,
2013-02-11 18:10:00,49.1,27.5,30.17,SE,128,1.0,1.0,43,0.00,,,0.00,Wunderground v.1.15,2013-02-12 02:10:00,
2013-02-11 18:15:00,48.6,27.1,30.17,SE,128,1.0,1.0,43,0.00,,,0.00,Wunderground v.1.15,2013-02-12 02:15:00,
2013-02-11 18:20:00,47.9,28.1,30.17,SE,130,1.0,1.0,46,0.00,,,0.00,Wunderground v.1.15,2013-02-12 02:20:00,
2013-02-11 18:30:00,46.5,27.8,30.18,SE,130,1.0,1.0,48,0.00,,,0.00,Wunderground v.1.15,2013-02-12 02:30:00,
2013-02-11 18:35:00,46.1,27.5,30.18,SE,130,0.0,1.0,48,0.00,,,0.00,Wunderground v.1.15,2013-02-12 02:35:00,
2013-02-11 18:45:00,45.1,27.6,30.18,SE,130,0.0,0.0,50,0.00,,,0.00,Wunderground v.1.15,2013-02-12 02:45:00,
2013-02-11 18:55:00,44.2,27.2,30.18,SE,130,0.0,0.0,51,0.00,,,0.00,Wunderground v.1.15,2013-02-12 02:55:00,
2013-02-11 19:00:00,43.8,27.3,30.19,SE,130,0.0,0.0,52,0.00,,,0.00,Wunderground v.1.15,2013-02-12 03:00:00,
2013-02-11 19:05:00,43.2,27.7,30.19,SE,130,0.0,2.0,54,0.00,,,0.00,Wunderground v.1.15,2013-02-12 03:05:00,
2013-02-11 19:10:00,42.5,27.5,30.19,SE,130,1.0,1.0,55,0.00,,,0.00,Wunderground v.1.15,2013-02-12 03:10:00,
2013-02-11 19:20:00,41.3,27.6,30.19,SE,130,2.0,2.0,58,0.00,,,0.00,Wunderground v.1.15,2013-02-12 03:20:00,
2013-02-11 19:25:00,40.8,27.2,30.19,SE,130,1.0,2.0,58,0.00,,,0.00,Wunderground v.1.15,2013-02-12 03:25:00,
2013-02-11 19:30:00,40.6,27.0,30.20,SE,130,0.0,0.0,58,0.00,,,0.00,Wunderground v.1.15,2013-02-12 03:30:00,
2013-02-11 19:40:00,40.1,26.9,30.20,SE,130,0.0,1.0,59,0.00,,,0.00,Wunderground v.1.15,2013-02-12 03:40:00,
2013-02-11 19:50:00,39.2,26.9,30.20,West,271,2.0,2.0,61,0.00,,,0.00,Wunderground v.1.15,2013-02-12 03:50:00,
2013-02-11 19:55:00,38.8,26.9,30.20,West,271,1.0,2.0,62,0.00,,,0.00,Wunderground v.1.15,2013-02-12 03:55:00,
2013-02-11 20:05:00,38.5,26.6,30.21,West,271,0.0,0.0,62,0.00,,,0.00,Wunderground v.1.15,2013-02-12 04:05:00,
2013-02-11 20:10:00,38.3,26.4,30.21,West,271,0.0,0.0,62,0.00,,,0.00,Wunderground v.1.15,2013-02-12 04:10:00,
2013-02-11 20:15:00,38.2,26.7,30.21,West,271,0.0,0.0,63,0.00,,,0.00,Wunderground v.1.15,2013-02-12 04:15:00,
2013-02-11 20:20:00,37.8,26.3,30.21,West,271,0.0,2.0,63,0.00,,,0.00,Wunderground v.1.15,2013-02-12 04:20:00,
2013-02-11 20:30:00,37.0,25.9,30.22,West,271,0.0,0.0,64,0.00,,,0.00,Wunderground v.1.15,2013-02-12 04:30:00,
2013-02-11 20:35:00,36.9,26.2,30.22,West,271,0.0,0.0,65,0.00,,,0.00,Wunderground v.1.15,2013-02-12 04:35:00,
2013-02-11 20:40:00,36.8,26.5,30.22,West,271,0.0,0.0,66,0.00,,,0.00,Wunderground v.1.15,2013-02-12 04:40:00,
2013-02-11 20:45:00,36.5,26.6,30.22,West,271,0.0,0.0,67,0.00,,,0.00,Wunderground v.1.15,2013-02-12 04:45:00,
2013-02-11 20:50:00,36.2,26.3,30.22,West,271,0.0,1.0,67,0.00,,,0.00,Wunderground v.1.15,2013-02-12 04:50:00,
2013-02-11 20:55:00,35.9,26.0,30.22,West,271,1.0,1.0,67,0.00,,,0.00,Wunderground v.1.15,2013-02-12 04:55:00,
2013-02-11 21:00:00,35.8,25.9,30.23,West,271,1.0,1.0,67,0.00,,,0.00,Wunderground v.1.15,2013-02-12 05:00:00,
2013-02-11 21:05:00,35.8,26.3,30.23,West,271,0.0,1.0,68,0.00,,,0.00,Wunderground v.1.15,2013-02-12 05:05:00,
2013-02-11 21:10:00,35.6,26.1,30.23,West,271,0.0,0.0,68,0.00,,,0.00,Wunderground v.1.15,2013-02-12 05:10:00,
2013-02-11 21:15:00,35.3,25.8,30.23,West,271,0.0,0.0,68,0.00,,,0.00,Wunderground v.1.15,2013-02-12 05:15:00,
2013-02-11 21:25:00,34.7,25.9,30.23,West,271,0.0,1.0,70,0.00,,,0.00,Wunderground v.1.15,2013-02-12 05:25:00,
2013-02-11 21:30:00,34.7,25.9,30.23,West,271,1.0,2.0,70,0.00,,,0.00,Wunderground v.1.15,2013-02-12 05:30:00,
2013-02-11 21:40:00,34.4,26.0,30.23,West,271,0.0,0.0,71,0.00,,,0.00,Wunderground v.1.15,2013-02-12 05:40:00,
2013-02-11 21:45:00,34.1,26.0,30.24,West,271,0.0,0.0,72,0.00,,,0.00,Wunderground v.1.15,2013-02-12 05:45:00,
2013-02-11 21:50:00,34.1,26.0,30.24,West,271,0.0,0.0,72,0.00,,,0.00,Wunderground v.1.15,2013-02-12 05:50:00,
2013-02-11 22:00:00,33.7,26.0,30.24,West,271,0.0,0.0,73,0.00,,,0.00,Wunderground v.1.15,2013-02-12 06:00:00,
2013-02-11 22:05:00,33.5,25.8,30.24,West,271,0.0,0.0,73,0.00,,,0.00,Wunderground v.1.15,2013-02-12 06:05:00,
2013-02-11 22:15:00,33.2,25.5,30.24,West,271,0.0,0.0,73,0.00,,,0.00,Wunderground v.1.15,2013-02-12 06:15:00,
2013-02-11 22:20:00,33.1,25.4,30.24,West,271,0.0,0.0,73,0.00,,,0.00,Wunderground v.1.15,2013-02-12 06:20:00,
2013-02-11 22:30:00,32.7,25.3,30.24,West,271,0.0,0.0,74,0.00,,,0.00,Wunderground v.1.15,2013-02-12 06:30:00,
2013-02-11 22:35:00,32.4,25.0,30.24,West,271,0.0,0.0,74,0.00,,,0.00,Wunderground v.1.15,2013-02-12 06:35:00,
2013-02-11 22:40:00,32.2,25.2,30.24,West,271,0.0,0.0,75,0.00,,,0.00,Wunderground v.1.15,2013-02-12 06:40:00,
2013-02-11 22:45:00,32.1,25.1,30.25,West,271,0.0,0.0,75,0.00,,,0.00,Wunderground v.1.15,2013-02-12 06:45:00,
2013-02-11 22:50:00,31.8,25.1,30.25,West,271,0.0,1.0,76,0.00,,,0.00,Wunderground v.1.15,2013-02-12 06:50:00,
2013-02-11 23:00:00,31.8,25.1,30.25,West,271,0.0,0.0,76,0.00,,,0.00,Wunderground v.1.15,2013-02-12 07:00:00,
2013-02-11 23:05:00,31.6,25.2,30.25,West,271,0.0,2.0,77,0.00,,,0.00,Wunderground v.1.15,2013-02-12 07:05:00,
2013-02-11 23:10:00,31.6,25.2,30.25,West,271,1.0,1.0,77,0.00,,,0.00,Wunderground v.1.15,2013-02-12 07:10:00,
2013-02-11 23:15:00,31.6,25.2,30.26,West,271,1.0,1.0,77,0.00,,,0.00,Wunderground v.1.15,2013-02-12 07:15:00,
2013-02-11 23:20:00,31.5,25.1,30.26,West,271,0.0,1.0,77,0.00,,,0.00,Wunderground v.1.15,2013-02-12 07:20:00,
2013-02-11 23:30:00,31.3,25.2,30.26,West,271,0.0,0.0,78,0.00,,,0.00,Wunderground v.1.15,2013-02-12 07:30:00,
2013-02-11 23:35:00,31.3,24.9,30.26,West,271,0.0,1.0,77,0.00,,,0.00,Wunderground v.1.15,2013-02-12 07:35:00,
2013-02-11 23:40:00,31.2,25.1,30.26,West,271,0.0,0.0,78,0.00,,,0.00,Wunderground v.1.15,2013-02-12 07:40:00,
2013-02-11 23:45:00,31.0,24.9,30.26,West,271,0.0,0.0,78,0.00,,,0.00,Wunderground v.1.15,2013-02-12 07:45:00,
2013-02-11 23:50:00,30.9,24.8,30.26,West,271,0.0,0.0,78,0.00,,,0.00,Wunderground v.1.15,2013-02-12 07:50:00,